Time;durP1;ratioP1;P1;durP2;ratioP2;P2;SDS_P1;SDS_P2;PMS_P1;PMS_P2;Temp;Humidity;BMP_temperature;BMP_pressure;BME280_temperature;BME280_humidity;BME280_pressure;Samples;Min_cycle;Max_cycle;Signal;HPM_P1;HPM_P2
2022/03/05 00:01:25;;;;;;;17.10;9.98;;;0.60;99.90;;;;;;5093281;27;20047;-61
2022/03/05 00:03:50;;;;;;;17.02;9.63;;;0.60;99.90;;;;;;5069264;27;20046;-62
2022/03/05 00:06:16;;;;;;;16.15;10.40;;;0.60;99.90;;;;;;5103422;27;20093;-61
2022/03/05 00:08:42;;;;;;;15.43;9.75;;;0.60;99.90;;;;;;5097837;27;20047;-60
2022/03/05 00:11:07;;;;;;;15.40;9.48;;;0.60;99.90;;;;;;5095169;27;20134;-63
2022/03/05 00:13:35;;;;;;;16.33;9.10;;;0.50;99.90;;;;;;5100179;27;20039;-63
2022/03/05 00:16:02;;;;;;;15.18;9.45;;;0.50;99.90;;;;;;5113399;27;20051;-63
2022/03/05 00:18:28;;;;;;;16.52;9.15;;;0.50;99.90;;;;;;5107537;27;20043;-62
2022/03/05 00:20:54;;;;;;;17.90;10.43;;;0.50;99.90;;;;;;5112782;27;20028;-62
2022/03/05 00:23:22;;;;;;;16.73;10.23;;;0.50;99.90;;;;;;5102855;27;20599;-62
2022/03/05 00:25:48;;;;;;;17.15;9.95;;;0.50;99.90;;;;;;5105613;27;20028;-62
2022/03/05 00:28:14;;;;;;;17.80;10.50;;;0.40;99.90;;;;;;5103227;27;20089;-62
2022/03/05 00:30:41;;;;;;;13.88;9.43;;;0.40;99.90;;;;;;5108118;27;20035;-64
2022/03/05 00:33:07;;;;;;;14.88;9.13;;;0.40;99.90;;;;;;5086154;27;20428;-63
2022/03/05 00:35:33;;;;;;;16.38;9.85;;;0.40;99.90;;;;;;5097557;27;20037;-63
2022/03/05 00:37:59;;;;;;;13.15;8.63;;;0.40;99.90;;;;;;5080626;27;20047;-63
2022/03/05 00:40:25;;;;;;;19.73;9.70;;;0.40;99.90;;;;;;5095932;27;20051;-63
2022/03/05 00:42:51;;;;;;;17.02;10.50;;;0.30;99.90;;;;;;5096493;27;20465;-62
2022/03/05 00:45:17;;;;;;;15.40;8.95;;;0.30;99.90;;;;;;5100044;27;22070;-62
2022/03/05 00:47:42;;;;;;;17.42;10.23;;;0.30;99.90;;;;;;5099471;27;20594;-61
2022/03/05 00:50:09;;;;;;;16.02;9.75;;;0.20;99.90;;;;;;5104015;27;20044;-61
2022/03/05 00:52:36;;;;;;;14.70;8.80;;;0.20;99.90;;;;;;5083938;27;20047;-62
2022/03/05 00:55:03;;;;;;;17.50;10.00;;;0.20;99.90;;;;;;5102677;27;20064;-63
2022/03/05 00:57:28;;;;;;;15.95;9.27;;;0.10;99.90;;;;;;5103953;27;20410;-62
2022/03/05 00:59:54;;;;;;;17.77;10.35;;;0.10;99.90;;;;;;5087497;27;20042;-62
2022/03/05 01:02:20;;;;;;;17.52;9.82;;;0.00;99.90;;;;;;5099501;27;20051;-62
2022/03/05 01:04:45;;;;;;;16.67;10.50;;;0.00;99.90;;;;;;5096312;27;20623;-62
2022/03/05 01:07:11;;;;;;;17.45;11.00;;;0.00;99.90;;;;;;5081876;27;20039;-61
2022/03/05 01:09:37;;;;;;;16.27;10.57;;;0.00;99.90;;;;;;5096821;27;20047;-63
2022/03/05 01:12:03;;;;;;;17.30;10.20;;;0.00;99.90;;;;;;5101084;27;20043;-63
2022/03/05 01:14:29;;;;;;;15.48;9.85;;;-0.10;99.90;;;;;;5101907;27;20150;-63
2022/03/05 01:16:55;;;;;;;19.00;11.10;;;-0.10;99.90;;;;;;5095757;27;20490;-63
2022/03/05 01:19:21;;;;;;;17.33;10.57;;;0.00;99.90;;;;;;5101057;27;20050;-62
2022/03/05 01:21:46;;;;;;;14.93;9.75;;;0.00;99.90;;;;;;5098669;27;20075;-64
2022/03/05 01:24:12;;;;;;;18.15;11.55;;;0.00;99.90;;;;;;5100715;27;20649;-61
2022/03/05 01:26:38;;;;;;;20.63;11.30;;;0.00;99.90;;;;;;5096586;27;20175;-61
2022/03/05 01:29:03;;;;;;;20.88;9.82;;;0.00;99.90;;;;;;5082361;27;20035;-61
2022/03/05 01:31:29;;;;;;;26.67;11.32;;;0.00;99.90;;;;;;5109468;27;20269;-63
2022/03/05 01:33:55;;;;;;;16.13;10.00;;;0.00;99.90;;;;;;5107094;27;20046;-60
2022/03/05 01:36:20;;;;;;;15.88;9.77;;;0.00;99.90;;;;;;5101948;27;20046;-62
2022/03/05 01:38:46;;;;;;;17.02;10.13;;;0.00;99.90;;;;;;5117202;27;20078;-61
2022/03/05 01:41:12;;;;;;;15.85;10.07;;;0.00;99.90;;;;;;5107226;27;20561;-62
2022/03/05 01:43:38;;;;;;;18.27;9.75;;;0.00;99.90;;;;;;5108855;27;20044;-62
2022/03/05 01:46:03;;;;;;;16.23;9.50;;;0.00;99.90;;;;;;5107044;27;20055;-61
2022/03/05 01:48:29;;;;;;;17.50;10.65;;;0.00;99.90;;;;;;5092576;27;20493;-63
2022/03/05 01:50:55;;;;;;;15.77;8.85;;;0.00;99.90;;;;;;5105271;27;20134;-62
2022/03/05 01:53:20;;;;;;;16.15;9.63;;;0.00;99.90;;;;;;5108636;27;20051;-63
2022/03/05 01:55:47;;;;;;;15.80;9.63;;;-0.10;99.90;;;;;;5109023;27;20253;-63
2022/03/05 01:58:13;;;;;;;17.00;10.02;;;0.00;99.90;;;;;;5102267;27;20051;-61
2022/03/05 02:00:38;;;;;;;19.15;10.70;;;0.00;99.90;;;;;;5103307;27;20035;-62
2022/03/05 02:03:04;;;;;;;13.98;9.18;;;0.00;99.90;;;;;;5107726;27;20044;-63
2022/03/05 02:05:30;;;;;;;18.08;10.70;;;-0.10;99.90;;;;;;5079588;27;20040;-63
2022/03/05 02:07:56;;;;;;;16.98;9.63;;;-0.10;99.90;;;;;;5099090;27;20042;-62
2022/03/05 02:10:22;;;;;;;19.33;9.32;;;-0.10;99.90;;;;;;5106290;27;20446;-62
2022/03/05 02:12:48;;;;;;;15.35;9.07;;;-0.10;99.90;;;;;;5072015;27;20035;-61
2022/03/05 02:15:14;;;;;;;17.33;9.35;;;-0.10;99.90;;;;;;5099736;27;20052;-61
2022/03/05 02:17:40;;;;;;;15.27;9.07;;;-0.10;99.90;;;;;;5102952;27;20767;-62
2022/03/05 02:20:06;;;;;;;16.05;10.13;;;-0.10;99.90;;;;;;5108337;27;20210;-62
2022/03/05 02:22:32;;;;;;;13.73;8.35;;;-0.10;99.90;;;;;;5107590;27;20121;-62
2022/03/05 02:24:59;;;;;;;15.40;8.80;;;-0.10;99.90;;;;;;5100948;27;20035;-62
2022/03/05 02:27:27;;;;;;;15.35;9.40;;;-0.10;99.90;;;;;;5098914;27;20194;-62
2022/03/05 02:29:55;;;;;;;16.75;9.40;;;-0.10;99.90;;;;;;5107514;27;20042;-62
2022/03/05 02:32:21;;;;;;;16.27;9.55;;;-0.10;99.90;;;;;;5098842;27;20047;-62
2022/03/05 02:34:47;;;;;;;16.77;9.88;;;-0.20;99.90;;;;;;5109731;27;20047;-63
2022/03/05 02:37:15;;;;;;;14.50;9.05;;;-0.20;99.90;;;;;;5103607;27;20054;-63
2022/03/05 02:39:42;;;;;;;15.13;8.98;;;-0.20;99.90;;;;;;5085481;27;20035;-61
2022/03/05 02:42:08;;;;;;;14.20;9.10;;;-0.20;99.90;;;;;;5099986;27;20961;-62
2022/03/05 02:44:34;;;;;;;15.45;9.50;;;-0.30;99.90;;;;;;5095530;27;20047;-62
2022/03/05 02:47:00;;;;;;;14.85;8.32;;;-0.20;99.90;;;;;;5096902;27;20092;-63
2022/03/05 02:49:26;;;;;;;13.13;8.35;;;-0.20;99.90;;;;;;5113342;27;20082;-62
2022/03/05 02:51:52;;;;;;;14.25;7.95;;;-0.20;99.90;;;;;;5116522;27;20553;-63
2022/03/05 02:54:18;;;;;;;15.88;8.35;;;-0.30;99.90;;;;;;5119151;27;20039;-64
2022/03/05 02:56:44;;;;;;;14.40;8.23;;;-0.20;99.90;;;;;;5089926;27;20047;-63
2022/03/05 02:59:10;;;;;;;14.32;8.05;;;-0.20;99.90;;;;;;5105874;27;20247;-62
2022/03/05 03:01:35;;;;;;;12.85;8.02;;;-0.20;99.90;;;;;;5088233;27;20041;-61
2022/03/05 03:04:02;;;;;;;13.23;8.07;;;-0.20;99.90;;;;;;5106755;27;20131;-62
2022/03/05 03:06:28;;;;;;;15.30;8.82;;;-0.20;99.90;;;;;;5102385;27;20050;-63
2022/03/05 03:08:54;;;;;;;12.77;7.40;;;-0.20;99.90;;;;;;5088417;27;20039;-62
2022/03/05 03:11:19;;;;;;;13.70;7.82;;;-0.20;99.90;;;;;;5099262;27;20058;-63
2022/03/05 03:13:45;;;;;;;13.80;8.63;;;-0.20;99.90;;;;;;5091508;27;20452;-61
2022/03/05 03:16:11;;;;;;;13.70;8.82;;;-0.30;99.90;;;;;;5101040;27;23139;-64
2022/03/05 03:18:37;;;;;;;15.18;8.68;;;-0.20;99.90;;;;;;5101512;27;20046;-63
2022/03/05 03:21:03;;;;;;;15.63;8.48;;;-0.20;99.90;;;;;;5098839;27;20493;-63
2022/03/05 03:23:28;;;;;;;16.02;7.90;;;-0.30;99.90;;;;;;5107347;27;20035;-63
2022/03/05 03:25:54;;;;;;;14.88;8.23;;;-0.30;99.90;;;;;;5101868;27;20044;-63
2022/03/05 03:28:20;;;;;;;12.93;8.38;;;-0.30;99.90;;;;;;5089294;27;20042;-64
2022/03/05 03:30:46;;;;;;;15.02;8.30;;;-0.40;99.90;;;;;;5105919;27;20051;-59
2022/03/05 03:33:12;;;;;;;15.55;8.82;;;-0.40;99.90;;;;;;5100470;27;20043;-64
2022/03/05 03:35:37;;;;;;;13.75;8.13;;;-0.40;99.90;;;;;;5108898;27;20031;-63
2022/03/05 03:38:03;;;;;;;14.85;8.63;;;-0.40;99.90;;;;;;5097896;27;20491;-60
2022/03/05 03:40:29;;;;;;;11.68;7.00;;;-0.40;99.90;;;;;;5094812;27;20442;-60
2022/03/05 03:42:55;;;;;;;12.82;7.90;;;-0.40;99.90;;;;;;5083458;27;20111;-61
2022/03/05 03:45:21;;;;;;;12.23;7.60;;;-0.40;99.90;;;;;;5103821;27;20047;-62
2022/03/05 03:47:49;;;;;;;17.35;9.00;;;-0.40;99.90;;;;;;5076237;27;20044;-61
2022/03/05 03:50:16;;;;;;;15.95;9.15;;;-0.40;99.90;;;;;;5094793;27;20071;-62
2022/03/05 03:52:42;;;;;;;16.65;8.40;;;-0.40;99.90;;;;;;5102934;27;20058;-61
2022/03/05 03:55:12;;;;;;;15.95;8.60;;;-0.40;99.90;;;;;;5075015;27;20571;-62
2022/03/05 03:57:38;;;;;;;19.80;9.40;;;-0.30;99.90;;;;;;5103010;27;20155;-62
2022/03/05 04:00:06;;;;;;;15.63;8.65;;;-0.40;99.90;;;;;;5076636;22;20059;-56
2022/03/05 04:02:32;;;;;;;15.35;8.77;;;-0.40;99.90;;;;;;5031749;28;20052;-53
2022/03/05 04:04:57;;;;;;;15.80;8.80;;;-0.40;99.90;;;;;;5032467;28;20052;-56
2022/03/05 04:10:07;;;;;;;;;;;-0.40;99.90;;;;;;5049282;28;20491;-52
2022/03/05 04:12:34;;;;;;;17.15;9.02;;;-0.50;99.90;;;;;;5029729;28;19920;-53
2022/03/05 04:15:00;;;;;;;14.80;8.18;;;-0.50;99.90;;;;;;5012860;28;20059;-51
2022/03/05 04:17:25;;;;;;;15.88;9.40;;;-0.50;99.90;;;;;;5003131;28;20518;-51
2022/03/05 04:19:51;;;;;;;16.25;8.50;;;-0.50;99.90;;;;;;5013322;28;20048;-53
2022/03/05 04:22:17;;;;;;;16.40;9.15;;;-0.50;99.90;;;;;;5014638;28;20122;-54
2022/03/05 04:24:43;;;;;;;13.63;8.13;;;-0.50;99.90;;;;;;5020193;28;20065;-54
2022/03/05 04:27:08;;;;;;;18.42;10.13;;;-0.50;99.90;;;;;;5014586;28;20041;-51
2022/03/05 04:29:34;;;;;;;14.98;9.05;;;-0.50;99.90;;;;;;5018015;28;20411;-53
2022/03/05 04:32:00;;;;;;;14.57;8.38;;;-0.50;99.90;;;;;;5009246;28;20053;-53
2022/03/05 04:34:26;;;;;;;15.02;8.68;;;-0.50;99.90;;;;;;5017556;28;20044;-51
2022/03/05 04:36:52;;;;;;;13.68;8.95;;;-0.60;99.90;;;;;;5011994;28;20056;-54
2022/03/05 04:39:18;;;;;;;15.05;9.20;;;-0.50;99.90;;;;;;5005171;28;20044;-54
2022/03/05 04:41:44;;;;;;;14.20;9.13;;;-0.50;99.90;;;;;;5014550;28;20095;-54
2022/03/05 04:44:09;;;;;;;14.75;8.73;;;-0.60;99.90;;;;;;5033559;28;20482;-52
2022/03/05 04:46:35;;;;;;;16.58;8.88;;;-0.60;99.90;;;;;;4993756;28;20083;-53
2022/03/05 04:49:02;;;;;;;13.73;8.30;;;-0.60;99.90;;;;;;5018825;28;20045;-56
2022/03/05 04:51:28;;;;;;;14.43;8.27;;;-0.60;99.90;;;;;;4996401;28;20168;-53
2022/03/05 04:53:53;;;;;;;15.43;8.18;;;-0.60;99.90;;;;;;5017929;28;20163;-55
2022/03/05 04:56:19;;;;;;;14.73;8.57;;;-0.60;99.90;;;;;;5011494;28;20628;-56
2022/03/05 04:58:45;;;;;;;17.67;9.13;;;-0.50;99.90;;;;;;5043014;28;20629;-53
2022/03/05 05:01:11;;;;;;;16.75;9.35;;;-0.50;99.90;;;;;;5032231;28;20045;-53
2022/03/05 05:03:36;;;;;;;14.43;8.05;;;-0.50;99.90;;;;;;5026272;28;20044;-51
2022/03/05 05:06:03;;;;;;;15.05;8.40;;;-0.50;99.90;;;;;;5012025;28;20047;-54
2022/03/05 05:08:28;;;;;;;16.73;9.70;;;-0.50;99.90;;;;;;5016439;28;20033;-51
2022/03/05 05:10:54;;;;;;;13.38;8.00;;;-0.50;99.90;;;;;;5055285;22;20044;-56
2022/03/05 05:13:20;;;;;;;15.57;8.52;;;-0.50;99.90;;;;;;5045961;28;20069;-54
2022/03/05 05:15:46;;;;;;;15.55;8.13;;;-0.50;99.90;;;;;;5032924;28;20599;-52
2022/03/05 05:18:11;;;;;;;15.15;9.98;;;-0.50;99.90;;;;;;5024449;28;20845;-54
2022/03/05 05:20:37;;;;;;;14.48;9.55;;;-0.50;99.90;;;;;;5011464;28;20514;-56
2022/03/05 05:23:03;;;;;;;14.35;8.65;;;-0.50;99.90;;;;;;5003317;28;20174;-53
2022/03/05 05:25:29;;;;;;;15.98;8.60;;;-0.60;99.90;;;;;;5014186;28;20040;-54
2022/03/05 05:27:55;;;;;;;17.55;8.98;;;-0.60;99.90;;;;;;5005685;28;20123;-56
2022/03/05 05:30:21;;;;;;;19.77;8.32;;;-0.60;99.90;;;;;;4977313;28;20029;-55
2022/03/05 05:32:47;;;;;;;15.85;9.43;;;-0.60;99.90;;;;;;4999699;28;20550;-54
2022/03/05 05:35:13;;;;;;;17.75;8.70;;;-0.60;99.90;;;;;;4995496;28;20047;-53
2022/03/05 05:37:39;;;;;;;14.82;8.75;;;-0.50;99.90;;;;;;5009256;28;20115;-52
2022/03/05 05:40:05;;;;;;;15.47;9.63;;;-0.60;99.90;;;;;;5007529;28;20059;-57
2022/03/05 05:42:31;;;;;;;15.10;9.02;;;-0.60;99.90;;;;;;5016334;28;20071;-51
2022/03/05 05:44:57;;;;;;;18.00;10.18;;;-0.70;99.90;;;;;;5011309;28;20041;-53
2022/03/05 05:47:23;;;;;;;16.38;8.63;;;-0.70;99.90;;;;;;5023556;28;20131;-52
2022/03/05 05:49:49;;;;;;;13.80;8.60;;;-0.80;99.90;;;;;;5004882;28;20400;-52
2022/03/05 05:52:14;;;;;;;16.15;9.80;;;-0.80;99.90;;;;;;5005444;28;21249;-56
2022/03/05 05:54:40;;;;;;;16.13;9.95;;;-0.70;99.90;;;;;;5010202;28;20037;-53
2022/03/05 05:57:06;;;;;;;14.95;9.13;;;-0.70;99.90;;;;;;5010280;28;20134;-55
2022/03/05 05:59:32;;;;;;;16.55;9.50;;;-0.80;99.90;;;;;;5009267;28;20111;-52
2022/03/05 06:01:58;;;;;;;13.30;8.18;;;-0.70;99.90;;;;;;5021986;28;20049;-53
2022/03/05 06:04:24;;;;;;;16.23;9.45;;;-0.70;99.90;;;;;;5005708;28;20045;-54
2022/03/05 06:06:50;;;;;;;18.15;9.90;;;-0.70;99.90;;;;;;5022668;28;20045;-53
2022/03/05 06:09:16;;;;;;;23.45;11.27;;;-0.70;99.90;;;;;;5025528;28;20496;-55
2022/03/05 06:11:42;;;;;;;25.15;12.50;;;-0.80;99.90;;;;;;5013654;28;20472;-55
2022/03/05 06:14:10;;;;;;;20.25;10.70;;;-0.80;99.90;;;;;;5012248;28;20282;-53
2022/03/05 06:16:36;;;;;;;21.10;9.85;;;-0.90;99.90;;;;;;5022425;28;20040;-55
2022/03/05 06:19:02;;;;;;;19.73;11.07;;;-0.90;99.90;;;;;;5016875;28;20248;-56
2022/03/05 06:21:28;;;;;;;16.58;9.48;;;-0.90;99.90;;;;;;5007471;28;20558;-54
2022/03/05 06:23:53;;;;;;;17.92;11.00;;;-0.90;99.90;;;;;;5030759;28;20029;-53
2022/03/05 06:26:19;;;;;;;17.58;10.07;;;-0.90;99.90;;;;;;5033031;28;20041;-52
2022/03/05 06:28:45;;;;;;;17.58;9.90;;;-0.90;99.90;;;;;;5024630;28;20128;-54
2022/03/05 06:31:11;;;;;;;15.77;9.00;;;-0.90;99.90;;;;;;5005393;28;20492;-54
2022/03/05 06:33:36;;;;;;;17.88;9.52;;;-0.90;99.90;;;;;;5032111;28;20054;-54
2022/03/05 06:36:03;;;;;;;20.45;10.32;;;-0.90;99.90;;;;;;5009345;28;20542;-57
2022/03/05 06:38:29;;;;;;;14.73;8.93;;;-0.90;99.90;;;;;;5025363;28;20657;-52
2022/03/05 06:40:54;;;;;;;15.00;9.23;;;-0.90;99.90;;;;;;5014564;28;20041;-51
2022/03/05 06:43:20;;;;;;;15.20;7.90;;;-0.90;99.90;;;;;;4999605;28;20541;-54
2022/03/05 06:45:46;;;;;;;15.63;9.43;;;-0.80;99.90;;;;;;5005274;28;20048;-56
2022/03/05 06:48:12;;;;;;;14.23;8.83;;;-0.70;99.90;;;;;;4992790;28;20120;-53
2022/03/05 06:50:38;;;;;;;18.63;8.77;;;-0.70;99.90;;;;;;5018141;28;20151;-54
2022/03/05 06:53:05;;;;;;;15.20;8.77;;;-0.70;99.90;;;;;;5030500;28;20052;-53
2022/03/05 06:55:31;;;;;;;16.33;10.13;;;-0.60;99.90;;;;;;5032051;28;20056;-55
2022/03/05 06:57:56;;;;;;;18.10;9.20;;;-0.60;99.90;;;;;;5014508;28;20042;-54
2022/03/05 07:00:22;;;;;;;15.90;9.70;;;-0.60;99.90;;;;;;5029059;28;20051;-56
2022/03/05 07:02:48;;;;;;;20.83;12.27;;;-0.50;99.90;;;;;;5033700;28;20041;-56
2022/03/05 07:05:14;;;;;;;12.55;8.32;;;-0.20;99.90;;;;;;4996866;28;20134;-51
2022/03/05 07:07:40;;;;;;;17.40;10.03;;;0.30;99.90;;;;;;5002841;28;20033;-53
2022/03/05 07:10:07;;;;;;;17.48;9.05;;;0.90;99.90;;;;;;5013009;28;20045;-52
2022/03/05 07:12:33;;;;;;;17.77;9.75;;;1.30;99.90;;;;;;5012087;28;20068;-51
2022/03/05 07:14:59;;;;;;;19.13;10.55;;;1.70;99.90;;;;;;5008043;28;20041;-52
2022/03/05 07:17:25;;;;;;;15.93;9.45;;;2.10;99.90;;;;;;5037978;28;20364;-55
2022/03/05 07:19:51;;;;;;;15.82;8.50;;;2.20;99.90;;;;;;5004106;28;20057;-51
2022/03/05 07:22:17;;;;;;;22.85;11.93;;;2.20;99.90;;;;;;5026081;28;20045;-54
2022/03/05 07:24:43;;;;;;;21.50;11.52;;;2.10;99.90;;;;;;5019773;28;20102;-54
2022/03/05 07:27:09;;;;;;;21.63;11.10;;;1.80;99.90;;;;;;5010291;28;20041;-55
2022/03/05 07:29:35;;;;;;;18.38;10.25;;;1.50;99.90;;;;;;5011358;28;20040;-55
2022/03/05 07:32:03;;;;;;;17.92;10.55;;;1.30;99.90;;;;;;5004136;28;20672;-54
2022/03/05 07:34:30;;;;;;;21.75;10.35;;;1.20;99.90;;;;;;5001657;28;20060;-54
2022/03/05 07:36:56;;;;;;;26.17;15.50;;;1.10;99.90;;;;;;5030303;28;20069;-53
2022/03/05 07:39:22;;;;;;;26.77;18.13;;;1.00;99.90;;;;;;5024428;28;20045;-55
2022/03/05 07:41:49;;;;;;;23.23;16.92;;;1.00;99.90;;;;;;5007163;28;20121;-54
2022/03/05 07:44:14;;;;;;;20.05;13.63;;;0.90;99.90;;;;;;5017001;28;20045;-54
2022/03/05 07:46:40;;;;;;;16.63;9.48;;;0.80;99.90;;;;;;5017642;28;20117;-54
2022/03/05 07:49:06;;;;;;;13.55;7.50;;;0.80;99.90;;;;;;5006178;28;20397;-54
2022/03/05 07:51:33;;;;;;;17.33;8.10;;;0.80;99.90;;;;;;5008076;28;20052;-53
2022/03/05 07:53:59;;;;;;;13.20;7.47;;;0.80;99.90;;;;;;5006140;28;20033;-55
2022/03/05 07:56:24;;;;;;;16.48;8.70;;;0.90;99.90;;;;;;5012922;28;20094;-54
2022/03/05 07:58:50;;;;;;;15.02;8.27;;;1.00;99.90;;;;;;5040872;28;20044;-54
2022/03/05 08:01:16;;;;;;;14.60;8.38;;;1.10;99.90;;;;;;5036593;28;20037;-56
2022/03/05 08:03:41;;;;;;;13.35;7.10;;;1.10;99.90;;;;;;5011584;28;20048;-54
2022/03/05 08:06:07;;;;;;;13.52;8.25;;;1.20;99.90;;;;;;5013531;28;20048;-52
2022/03/05 08:08:33;;;;;;;12.20;7.18;;;1.30;99.90;;;;;;5008088;28;20092;-53
2022/03/05 08:10:59;;;;;;;16.20;8.48;;;1.40;99.90;;;;;;5016963;28;20475;-54
2022/03/05 08:13:27;;;;;;;13.20;8.35;;;1.50;99.90;;;;;;5004154;28;20716;-54
2022/03/05 08:15:52;;;;;;;15.98;8.32;;;1.70;99.90;;;;;;4998492;28;20372;-54
2022/03/05 08:18:20;;;;;;;12.70;8.30;;;1.70;99.90;;;;;;5008345;28;20099;-54
2022/03/05 08:20:45;;;;;;;14.43;8.27;;;1.80;99.90;;;;;;5008646;28;20056;-55
2022/03/05 08:23:11;;;;;;;21.13;10.57;;;1.90;99.90;;;;;;5003611;28;20637;-56
2022/03/05 08:25:37;;;;;;;27.38;13.93;;;2.00;99.90;;;;;;5025530;28;20120;-54
2022/03/05 08:28:02;;;;;;;20.00;11.73;;;2.10;99.90;;;;;;5027558;28;20043;-56
2022/03/05 08:30:28;;;;;;;26.40;14.43;;;2.20;99.90;;;;;;5016906;28;20044;-55
2022/03/05 08:32:54;;;;;;;18.42;9.65;;;2.30;99.90;;;;;;5008928;28;20045;-54
2022/03/05 08:35:21;;;;;;;20.65;9.15;;;2.30;99.90;;;;;;5011674;28;20512;-52
2022/03/05 08:37:46;;;;;;;16.00;9.00;;;2.40;99.90;;;;;;5009360;28;20068;-55
2022/03/05 08:40:14;;;;;;;16.60;9.85;;;2.30;99.90;;;;;;5009438;28;20191;-55
2022/03/05 08:42:41;;;;;;;17.02;9.88;;;2.40;99.90;;;;;;5006846;28;20076;-53
2022/03/05 08:45:08;;;;;;;16.35;9.35;;;2.50;99.90;;;;;;5018850;28;20044;-55
2022/03/05 08:47:34;;;;;;;16.17;9.23;;;2.70;99.90;;;;;;5012815;28;20054;-56
2022/03/05 08:49:59;;;;;;;17.08;8.93;;;2.70;99.90;;;;;;5031991;28;20055;-54
2022/03/05 08:52:25;;;;;;;16.25;9.60;;;2.80;99.90;;;;;;5014099;28;20108;-52
2022/03/05 08:54:51;;;;;;;20.67;10.13;;;2.80;99.90;;;;;;5015025;28;20037;-56
2022/03/05 08:57:17;;;;;;;17.65;10.00;;;2.90;99.90;;;;;;5027739;28;20045;-58
2022/03/05 08:59:42;;;;;;;16.00;10.07;;;2.90;99.90;;;;;;5012695;28;20049;-57
2022/03/05 09:02:08;;;;;;;17.30;10.18;;;3.00;99.90;;;;;;5020249;28;20371;-55
2022/03/05 09:04:34;;;;;;;17.33;10.05;;;3.00;99.90;;;;;;5034905;28;20040;-55
2022/03/05 09:07:01;;;;;;;16.10;10.00;;;3.00;99.90;;;;;;5015681;28;21001;-56
2022/03/05 09:13:07;;;;;;;17.83;10.90;;;3.20;99.90;;;;;;5035786;28;20044;-59
2022/03/05 09:15:33;;;;;;;17.92;10.88;;;3.30;99.90;;;;;;5024098;28;20037;-54
2022/03/05 09:17:59;;;;;;;21.50;11.95;;;3.40;99.90;;;;;;5039777;28;20040;-56
2022/03/05 09:20:25;;;;;;;18.35;11.10;;;3.40;99.90;;;;;;5021917;28;20055;-56
2022/03/05 09:22:50;;;;;;;18.92;10.43;;;3.50;99.90;;;;;;5036180;28;20044;-58
2022/03/05 09:25:16;;;;;;;21.67;11.35;;;3.60;99.90;;;;;;5007691;28;20041;-54
2022/03/05 09:27:42;;;;;;;18.75;11.05;;;3.70;99.90;;;;;;5033234;28;20068;-59
2022/03/05 09:30:08;;;;;;;21.10;11.13;;;3.70;99.70;;;;;;5040952;28;20044;-57
2022/03/05 09:32:34;;;;;;;21.67;11.95;;;3.70;99.90;;;;;;5017467;28;20064;-55
2022/03/05 09:35:00;;;;;;;20.00;12.23;;;3.80;99.60;;;;;;5005511;28;20041;-55
2022/03/05 09:37:30;;;;;;;20.88;12.27;;;3.90;99.70;;;;;;5000027;28;20041;-53
2022/03/05 09:39:57;;;;;;;22.33;12.20;;;4.00;99.60;;;;;;5019768;28;20526;-54
2022/03/05 09:42:23;;;;;;;19.27;11.63;;;4.10;99.40;;;;;;5026450;28;20057;-58
2022/03/05 09:44:49;;;;;;;22.83;12.15;;;4.20;99.20;;;;;;5020241;28;20056;-56
2022/03/05 09:47:15;;;;;;;23.05;12.57;;;4.30;99.10;;;;;;5015012;28;20506;-54
2022/03/05 09:49:42;;;;;;;19.27;11.27;;;4.40;98.60;;;;;;5015595;28;20033;-55
2022/03/05 09:52:09;;;;;;;21.10;12.50;;;4.50;98.80;;;;;;5026712;28;20296;-56
2022/03/05 09:54:39;;;;;;;21.48;12.20;;;4.60;98.60;;;;;;5006186;28;20094;-56
2022/03/05 09:57:11;;;;;;;21.10;11.95;;;4.80;98.20;;;;;;4997115;28;20098;-55
2022/03/05 09:59:37;;;;;;;21.88;11.48;;;4.80;97.80;;;;;;4991990;28;20067;-56
2022/03/05 10:02:05;;;;;;;20.33;11.93;;;4.90;97.70;;;;;;5004054;28;20618;-54
2022/03/05 10:04:31;;;;;;;27.60;16.75;;;4.90;97.30;;;;;;5029632;28;20391;-53
2022/03/05 10:07:13;;;;;;;23.98;13.43;;;4.90;97.00;;;;;;5019258;28;20055;-53
2022/03/05 10:09:41;;;;;;;30.65;16.17;;;5.10;97.20;;;;;;5013174;28;20076;-53
2022/03/05 10:12:29;;;;;;;27.67;16.58;;;5.20;97.40;;;;;;5035364;28;20087;-56
2022/03/05 10:15:09;;;;;;;20.20;12.52;;;5.20;96.70;;;;;;5017923;28;20542;-60
2022/03/05 10:18:05;;;;;;;22.40;13.73;;;5.50;97.40;;;;;;5012201;28;20052;-56
2022/03/05 10:20:34;;;;;;;23.63;13.25;;;5.70;96.60;;;;;;4997356;28;20558;-51
2022/03/05 10:23:06;;;;;;;22.92;13.88;;;5.80;96.40;;;;;;4988172;28;20052;-58
2022/03/05 10:25:34;;;;;;;22.95;13.55;;;5.70;96.20;;;;;;5029455;28;20056;-56
2022/03/05 10:28:02;;;;;;;27.75;14.18;;;5.90;96.40;;;;;;5014149;28;20836;-55
2022/03/05 10:30:29;;;;;;;24.52;13.85;;;5.90;94.80;;;;;;5016793;28;20041;-54
2022/03/05 10:32:55;;;;;;;23.88;13.00;;;5.90;95.40;;;;;;5035188;28;20064;-59
2022/03/05 10:35:21;;;;;;;25.65;14.50;;;5.80;94.90;;;;;;5009522;28;20515;-56
2022/03/05 10:37:54;;;;;;;21.33;14.00;;;5.90;95.50;;;;;;5011999;28;20095;-56
2022/03/05 10:40:32;;;;;;;25.43;14.63;;;6.00;95.40;;;;;;5013865;28;20322;-56
2022/03/05 10:43:03;;;;;;;23.45;13.95;;;6.00;94.60;;;;;;5008231;28;20056;-55
2022/03/05 10:45:29;;;;;;;27.42;15.13;;;6.00;93.50;;;;;;5008032;28;20060;-59
2022/03/05 10:48:00;;;;;;;20.27;13.07;;;5.90;93.10;;;;;;5036898;28;20488;-54
2022/03/05 10:50:30;;;;;;;25.77;14.77;;;6.00;93.40;;;;;;4993792;28;20037;-56
2022/03/05 10:52:58;;;;;;;22.83;13.45;;;6.10;93.80;;;;;;5010716;28;20041;-54
2022/03/05 10:55:27;;;;;;;23.20;13.02;;;6.20;93.60;;;;;;5015625;28;20041;-56
2022/03/05 10:58:17;;;;;;;22.42;13.32;;;6.40;94.10;;;;;;5010374;28;20936;-58
2022/03/05 11:00:49;;;;;;;22.15;13.27;;;6.60;93.60;;;;;;5016358;28;20512;-55
2022/03/05 11:03:15;;;;;;;24.20;13.48;;;6.60;93.30;;;;;;5006760;28;20504;-55
2022/03/05 11:05:42;;;;;;;22.27;13.43;;;6.80;93.00;;;;;;5009916;28;20108;-60
2022/03/05 11:08:08;;;;;;;24.00;14.23;;;6.80;92.80;;;;;;5021920;28;20048;-56
2022/03/05 11:10:34;;;;;;;23.40;12.07;;;6.80;92.40;;;;;;4990778;28;20037;-53
2022/03/05 11:13:03;;;;;;;21.20;11.77;;;6.70;91.80;;;;;;5007305;28;20600;-55
2022/03/05 11:15:30;;;;;;;24.15;13.45;;;6.80;91.80;;;;;;5015499;28;20422;-55
2022/03/05 11:18:01;;;;;;;21.98;12.90;;;6.70;91.70;;;;;;5004465;28;20048;-56
2022/03/05 11:20:27;;;;;;;20.98;13.05;;;6.90;92.40;;;;;;4994129;28;20561;-55
2022/03/05 11:22:55;;;;;;;23.20;13.18;;;7.10;91.70;;;;;;5024864;28;20045;-55
2022/03/05 11:25:24;;;;;;;23.25;13.70;;;7.20;91.30;;;;;;5030815;28;20115;-56
2022/03/05 11:28:03;;;;;;;23.67;14.02;;;7.10;90.80;;;;;;5008079;28;20057;-55
2022/03/05 11:30:40;;;;;;;23.75;12.85;;;7.10;90.90;;;;;;5031616;28;20484;-58
2022/03/05 11:33:11;;;;;;;21.35;12.50;;;7.10;90.50;;;;;;4994078;28;20040;-55
2022/03/05 11:35:43;;;;;;;20.88;12.60;;;7.20;91.40;;;;;;5034606;28;20120;-56
2022/03/05 11:38:38;;;;;;;22.90;13.63;;;7.30;91.30;;;;;;5001346;28;20041;-56
2022/03/05 11:41:27;;;;;;;22.40;13.40;;;7.50;90.90;;;;;;5016630;28;20045;-56
2022/03/05 11:44:10;;;;;;;23.58;13.60;;;7.60;90.60;;;;;;5033754;28;20075;-58
2022/03/05 11:46:36;;;;;;;22.52;14.20;;;7.60;90.70;;;;;;5016571;28;20044;-55
2022/03/05 11:49:08;;;;;;;21.60;12.85;;;7.70;90.00;;;;;;5022625;28;20052;-54
2022/03/05 11:51:49;;;;;;;20.63;12.10;;;7.60;89.70;;;;;;5028348;28;20120;-54
2022/03/05 11:54:17;;;;;;;24.33;13.65;;;7.60;90.40;;;;;;5016575;28;20087;-55
2022/03/05 11:57:14;;;;;;;21.63;14.02;;;7.80;90.70;;;;;;5017246;28;20083;-57
2022/03/05 11:59:50;;;;;;;23.10;14.40;;;7.90;90.30;;;;;;5019825;28;20067;-62
2022/03/05 12:02:37;;;;;;;22.55;13.98;;;8.10;90.00;;;;;;5033293;28;20648;-55
2022/03/05 12:05:03;;;;;;;22.15;13.82;;;8.00;87.40;;;;;;5007138;28;20052;-57
2022/03/05 12:07:36;;;;;;;25.25;14.35;;;8.00;87.20;;;;;;4998558;28;21814;-54
2022/03/05 12:10:12;;;;;;;;;;;8.00;88.40;;;;;;4969490;28;20037;-56
2022/03/05 12:13:03;;;;;;;23.55;14.23;;;8.20;87.40;;;;;;4985052;28;19929;-53
2022/03/05 12:15:37;;;;;;;22.02;13.88;;;8.20;87.80;;;;;;5004168;28;20119;-60
2022/03/05 12:18:04;;;;;;;23.45;13.52;;;8.20;87.20;;;;;;5004617;28;20049;-54
2022/03/05 12:20:35;;;;;;;22.33;14.50;;;8.20;85.20;;;;;;5030280;28;20522;-55
2022/03/05 12:23:05;;;;;;;32.97;16.20;;;8.30;86.00;;;;;;5031108;28;20050;-56
2022/03/05 12:25:40;;;;;;;25.10;15.25;;;8.20;86.30;;;;;;5030953;28;20048;-56
2022/03/05 12:28:13;;;;;;;23.77;15.55;;;8.00;85.10;;;;;;5016289;28;20114;-56
2022/03/05 12:30:39;;;;;;;32.60;18.20;;;8.10;87.10;;;;;;5010425;28;20102;-55
2022/03/05 12:33:07;;;;;;;26.08;15.85;;;8.20;86.60;;;;;;5012524;28;20040;-56
2022/03/05 12:35:33;;;;;;;24.10;14.75;;;8.30;86.60;;;;;;5010743;28;20041;-54
2022/03/05 12:38:00;;;;;;;22.20;13.25;;;8.50;84.90;;;;;;5016300;28;20091;-60
2022/03/05 12:40:28;;;;;;;21.90;13.85;;;8.30;85.70;;;;;;5014630;28;20068;-57
2022/03/05 12:42:55;;;;;;;21.70;12.82;;;8.50;86.40;;;;;;5020494;28;20098;-55
2022/03/05 12:45:25;;;;;;;22.35;12.68;;;8.70;86.10;;;;;;5017978;28;20036;-55